Time;durP1;ratioP1;P1;durP2;ratioP2;P2;SDS_P1;SDS_P2;PMS_P1;PMS_P2;Temp;Humidity;BMP_temperature;BMP_pressure;BME280_temperature;BME280_humidity;BME280_pressure;Samples;Min_cycle;Max_cycle;Signal;HPM_P1;HPM_P2
2023/04/28 04:31:14;;;;;;;11.00;5.50;;;16.30;86.80;;;;;;5482550;23;20098;-81
2023/04/28 04:33:40;;;;;;;9.38;4.43;;;16.30;86.90;;;;;;4916645;29;20096;-81
2023/04/28 04:36:06;;;;;;;8.73;3.67;;;16.30;86.90;;;;;;4900582;29;20091;-81
2023/04/28 04:38:32;;;;;;;8.80;3.58;;;16.30;86.80;;;;;;4918111;29;20035;-81
2023/04/28 04:40:57;;;;;;;7.80;3.63;;;16.30;86.90;;;;;;4918114;29;20032;-81
2023/04/28 04:43:23;;;;;;;6.60;3.35;;;16.30;87.00;;;;;;4918731;29;20107;-81
2023/04/28 04:45:49;;;;;;;10.55;3.60;;;16.20;87.00;;;;;;4917552;29;20059;-80
2023/04/28 04:48:14;;;;;;;5.68;3.10;;;16.20;87.00;;;;;;4918608;29;20027;-83
2023/04/28 04:50:41;;;;;;;7.18;3.67;;;16.20;87.10;;;;;;4917824;29;20043;-85
2023/04/28 04:53:06;;;;;;;4.65;3.20;;;16.20;87.00;;;;;;4919192;29;20024;-86
2023/04/28 04:55:32;;;;;;;7.05;3.60;;;16.30;87.00;;;;;;4918640;29;20090;-85
2023/04/28 04:57:58;;;;;;;5.18;3.28;;;16.30;86.80;;;;;;4901874;29;20036;-85
2023/04/28 05:00:24;;;;;;;6.32;4.03;;;16.30;86.80;;;;;;4900755;29;20024;-86
2023/04/28 05:02:49;;;;;;;9.48;3.67;;;16.30;86.60;;;;;;4898289;29;20080;-86
2023/04/28 05:05:15;;;;;;;7.30;3.17;;;16.30;86.60;;;;;;4919023;29;20028;-80
2023/04/28 05:07:42;;;;;;;5.65;3.08;;;16.30;86.60;;;;;;4903900;29;20024;-82
2023/04/28 05:10:10;;;;;;;8.48;3.22;;;16.30;86.70;;;;;;4904581;29;20480;-84
2023/04/28 05:12:36;;;;;;;8.15;3.13;;;16.30;86.60;;;;;;4918599;29;20039;-82
2023/04/28 05:15:02;;;;;;;6.63;3.00;;;16.30;86.60;;;;;;4919323;29;20083;-84
2023/04/28 05:17:27;;;;;;;5.15;2.58;;;16.40;86.50;;;;;;4917909;29;20028;-88
2023/04/28 05:19:53;;;;;;;3.97;2.45;;;16.30;86.40;;;;;;4902055;29;20452;-85
2023/04/28 05:22:18;;;;;;;7.78;3.10;;;16.30;86.50;;;;;;4917549;29;20499;-81
2023/04/28 05:24:44;;;;;;;4.10;2.40;;;16.30;86.60;;;;;;4917800;29;20028;-80
2023/04/28 05:27:10;;;;;;;4.40;2.40;;;16.40;86.60;;;;;;4919406;29;20047;-82
2023/04/28 05:29:35;;;;;;;7.13;2.78;;;16.30;86.50;;;;;;4901285;29;20501;-80
2023/04/28 05:32:01;;;;;;;4.70;2.38;;;16.40;86.50;;;;;;4901793;29;20522;-86
2023/04/28 05:34:30;;;;;;;3.85;2.15;;;16.40;86.40;;;;;;4919397;29;20587;-83
2023/04/28 05:36:56;;;;;;;5.70;2.22;;;16.40;86.40;;;;;;4899179;29;20044;-82
2023/04/28 05:39:21;;;;;;;4.80;2.67;;;16.40;86.30;;;;;;4914805;29;20076;-83
2023/04/28 05:41:47;;;;;;;4.75;2.30;;;16.50;86.30;;;;;;4916724;29;20036;-83
2023/04/28 05:44:13;;;;;;;4.97;2.75;;;16.40;86.30;;;;;;4899096;29;20085;-85
2023/04/28 05:46:38;;;;;;;4.43;2.45;;;16.40;86.40;;;;;;4916149;29;20039;-82
2023/04/28 05:49:04;;;;;;;4.13;2.35;;;16.50;86.30;;;;;;4901048;29;20040;-85
2023/04/28 05:51:30;;;;;;;4.78;2.42;;;16.50;86.30;;;;;;4913249;29;20032;-87
2023/04/28 05:53:55;;;;;;;4.63;2.40;;;16.50;86.30;;;;;;4912640;29;20404;-85
2023/04/28 05:56:21;;;;;;;5.18;2.42;;;16.50;86.30;;;;;;4915035;29;20040;-86
2023/04/28 05:58:49;;;;;;;3.97;2.28;;;16.50;86.30;;;;;;4901769;29;20032;-87
2023/04/28 06:01:15;;;;;;;3.25;1.88;;;16.60;86.20;;;;;;4921942;29;20024;-87
2023/04/28 06:03:41;;;;;;;3.60;1.48;;;16.60;86.10;;;;;;4922483;29;20062;-87
2023/04/28 06:06:08;;;;;;;3.45;2.28;;;16.70;86.00;;;;;;4935981;29;20028;-87
2023/04/28 06:08:34;;;;;;;2.90;1.85;;;16.70;86.00;;;;;;4940878;29;20093;-87
2023/04/28 06:10:59;;;;;;;3.08;1.73;;;16.70;85.90;;;;;;4926320;29;20032;-86
2023/04/28 06:13:25;;;;;;;2.80;1.73;;;16.70;85.90;;;;;;4922375;29;20095;-85
2023/04/28 06:15:51;;;;;;;3.13;1.98;;;16.70;85.80;;;;;;4922142;29;20028;-85
2023/04/28 06:18:16;;;;;;;4.43;2.47;;;16.70;85.80;;;;;;4893223;29;20032;-85
2023/04/28 06:20:42;;;;;;;2.80;1.90;;;16.70;85.80;;;;;;4921073;29;20131;-85
2023/04/28 06:23:10;;;;;;;2.42;1.55;;;16.70;85.80;;;;;;4917778;29;20543;-84
2023/04/28 06:25:36;;;;;;;1.83;1.40;;;16.70;85.70;;;;;;4917555;29;20084;-86
2023/04/28 06:28:02;;;;;;;2.17;1.42;;;16.70;85.80;;;;;;4923050;29;20098;-86
2023/04/28 06:30:28;;;;;;;3.33;1.40;;;16.70;85.80;;;;;;4922741;29;20052;-86
2023/04/28 06:32:56;;;;;;;2.70;1.58;;;16.70;85.60;;;;;;4921930;29;20056;-85
2023/04/28 06:35:22;;;;;;;2.13;1.55;;;16.70;85.70;;;;;;4904165;29;20032;-86
2023/04/28 06:37:48;;;;;;;3.47;1.30;;;16.70;85.90;;;;;;4917332;29;20453;-85
2023/04/28 06:40:13;;;;;;;1.70;1.10;;;16.70;85.80;;;;;;4918651;29;20044;-85
2023/04/28 06:42:39;;;;;;;2.60;1.58;;;16.80;85.80;;;;;;4926046;29;20024;-85
2023/04/28 06:45:05;;;;;;;1.90;1.40;;;16.70;85.70;;;;;;4921316;29;20032;-85
2023/04/28 06:47:31;;;;;;;2.13;1.20;;;16.70;85.80;;;;;;4920938;29;20023;-85
2023/04/28 06:49:56;;;;;;;2.03;0.98;;;16.70;85.80;;;;;;4914272;29;20036;-85
2023/04/28 06:52:22;;;;;;;2.90;1.60;;;16.70;85.70;;;;;;4901027;29;20032;-85
2023/04/28 06:54:49;;;;;;;2.90;1.65;;;16.80;85.60;;;;;;4902413;29;20057;-85
2023/04/28 06:57:15;;;;;;;4.05;1.75;;;16.80;85.60;;;;;;4886106;29;20033;-85
2023/04/28 06:59:42;;;;;;;3.08;1.50;;;16.80;85.50;;;;;;4918698;29;20507;-85
2023/04/28 07:02:09;;;;;;;2.47;1.50;;;16.80;85.30;;;;;;4900887;29;20466;-85
2023/04/28 07:04:35;;;;;;;3.47;1.80;;;16.90;85.20;;;;;;4906272;29;20020;-85
2023/04/28 07:07:01;;;;;;;2.47;1.50;;;16.80;85.50;;;;;;4905448;29;20639;-86
2023/04/28 07:09:27;;;;;;;2.80;1.58;;;17.00;85.30;;;;;;4933954;29;20086;-85
2023/04/28 07:11:52;;;;;;;3.45;1.80;;;17.20;85.10;;;;;;4921169;29;20043;-86
2023/04/28 07:14:18;;;;;;;4.50;1.90;;;17.30;84.90;;;;;;4920767;29;20522;-85
2023/04/28 07:16:44;;;;;;;3.53;2.03;;;17.30;84.60;;;;;;4920040;29;20032;-85
2023/04/28 07:19:10;;;;;;;3.63;1.75;;;17.60;84.30;;;;;;4916169;29;20500;-85
2023/04/28 07:21:35;;;;;;;4.82;1.90;;;17.60;83.90;;;;;;4902256;29;20045;-85
2023/04/28 07:24:01;;;;;;;3.30;1.77;;;17.60;83.90;;;;;;4920842;29;20036;-85
2023/04/28 07:26:27;;;;;;;4.45;2.13;;;17.60;83.90;;;;;;4919894;29;20028;-86
2023/04/28 07:28:53;;;;;;;3.55;2.03;;;17.80;83.60;;;;;;4920002;29;20042;-86
2023/04/28 07:31:19;;;;;;;2.97;2.00;;;18.10;83.10;;;;;;4918982;29;20063;-85
2023/04/28 07:33:44;;;;;;;3.42;2.13;;;18.20;82.80;;;;;;4911615;29;20125;-85
2023/04/28 07:36:10;;;;;;;3.17;1.98;;;18.10;82.70;;;;;;4903656;29;20103;-86
2023/04/28 07:38:36;;;;;;;5.35;1.95;;;18.20;82.50;;;;;;4920266;29;20036;-84
2023/04/28 07:41:02;;;;;;;2.40;1.73;;;18.10;82.30;;;;;;4920132;29;20455;-85
2023/04/28 07:43:29;;;;;;;3.75;2.33;;;18.10;82.40;;;;;;4920409;29;20028;-85
2023/04/28 07:45:54;;;;;;;3.15;2.17;;;18.10;82.50;;;;;;4919740;29;20024;-85
2023/04/28 07:48:20;;;;;;;2.85;1.90;;;18.00;82.60;;;;;;4915823;29;20039;-85
2023/04/28 07:50:46;;;;;;;3.15;2.03;;;18.00;82.50;;;;;;4920088;29;20669;-85
2023/04/28 07:53:12;;;;;;;3.92;2.38;;;18.00;82.70;;;;;;4899598;29;20060;-85
2023/04/28 07:55:40;;;;;;;3.70;2.38;;;18.00;82.80;;;;;;4900386;29;20036;-85
2023/04/28 07:58:06;;;;;;;3.08;2.00;;;17.90;82.70;;;;;;4919565;29;20039;-86
2023/04/28 08:00:32;;;;;;;2.67;1.80;;;17.90;82.50;;;;;;4919783;29;20028;-85
2023/04/28 08:02:58;;;;;;;3.03;1.70;;;17.90;82.70;;;;;;4919333;29;20511;-84
2023/04/28 08:05:24;;;;;;;3.72;1.85;;;18.00;82.60;;;;;;4902455;29;20126;-85
2023/04/28 08:07:49;;;;;;;3.00;1.35;;;18.10;82.40;;;;;;4929521;29;20087;-85
2023/04/28 08:10:15;;;;;;;3.67;1.20;;;18.20;82.20;;;;;;4920891;29;20092;-84
2023/04/28 08:12:41;;;;;;;3.05;1.23;;;18.30;81.90;;;;;;4914208;29;20083;-84
2023/04/28 08:15:08;;;;;;;1.55;0.95;;;18.70;81.50;;;;;;4918484;29;20039;-84
2023/04/28 08:17:34;;;;;;;3.00;1.10;;;18.90;80.70;;;;;;4902650;29;20032;-84
2023/04/28 08:20:00;;;;;;;2.90;1.00;;;19.20;79.60;;;;;;4924421;29;20039;-84
2023/04/28 08:22:25;;;;;;;1.20;0.80;;;19.30;79.40;;;;;;4919132;29;20036;-84
2023/04/28 08:24:51;;;;;;;2.95;0.88;;;19.30;78.60;;;;;;4918370;29;20463;-84
2023/04/28 08:27:17;;;;;;;1.77;1.20;;;19.30;78.80;;;;;;4919364;29;20028;-84
2023/04/28 08:29:42;;;;;;;1.98;1.10;;;19.40;78.40;;;;;;4913574;29;20039;-84
2023/04/28 08:32:08;;;;;;;2.63;1.55;;;19.50;78.30;;;;;;4911222;29;20054;-84
2023/04/28 08:34:34;;;;;;;2.15;1.10;;;19.60;78.00;;;;;;4922999;29;20458;-84
2023/04/28 08:37:00;;;;;;;2.15;1.08;;;19.60;77.50;;;;;;4901499;29;20059;-84
2023/04/28 08:39:27;;;;;;;2.10;1.08;;;19.60;77.30;;;;;;4917376;29;20085;-84
2023/04/28 08:41:53;;;;;;;1.35;0.95;;;19.60;77.70;;;;;;4918320;29;20028;-84
2023/04/28 08:44:19;;;;;;;4.10;1.23;;;19.50;77.20;;;;;;4918624;29;20052;-85
2023/04/28 08:46:46;;;;;;;1.90;1.15;;;19.30;77.70;;;;;;4918655;29;20062;-84
2023/04/28 08:49:16;;;;;;;7.28;1.20;;;19.10;78.10;;;;;;4911395;29;20488;-83
2023/04/28 08:51:50;;;;;;;2.03;1.20;;;19.00;78.50;;;;;;4919089;29;20036;-81
2023/04/28 08:54:17;;;;;;;2.20;1.38;;;18.90;78.80;;;;;;4917772;29;20562;-81
2023/04/28 08:56:44;;;;;;;1.67;1.30;;;18.90;78.90;;;;;;4918908;29;20084;-84
2023/04/28 08:59:13;;;;;;;1.70;1.50;;;19.00;78.90;;;;;;4917153;29;20598;-82
2023/04/28 09:01:39;;;;;;;3.53;1.23;;;19.10;78.80;;;;;;4901875;29;20028;-84
2023/04/28 09:04:05;;;;;;;2.80;1.35;;;19.10;78.80;;;;;;4913373;29;20283;-83
2023/04/28 09:06:35;;;;;;;1.60;1.25;;;19.00;78.40;;;;;;4916625;29;20126;-83
2023/04/28 09:09:19;;;;;;;1.63;1.08;;;19.00;78.70;;;;;;4918594;29;20111;-84
2023/04/28 09:11:58;;;;;;;1.70;1.30;;;18.90;78.70;;;;;;4900856;29;20036;-82
2023/04/28 09:14:25;;;;;;;2.00;1.38;;;18.80;78.50;;;;;;4920290;29;20078;-82
2023/04/28 09:16:51;;;;;;;3.30;1.50;;;18.80;78.90;;;;;;4901427;29;20044;-83
2023/04/28 09:19:18;;;;;;;1.90;1.40;;;18.80;78.80;;;;;;4917252;29;20034;-83
2023/04/28 09:21:48;;;;;;;2.40;1.35;;;18.80;79.00;;;;;;4917093;29;20040;-83
2023/04/28 09:24:34;;;;;;;2.10;1.30;;;18.80;79.00;;;;;;4918771;29;20024;-83
2023/04/28 09:27:01;;;;;;;2.70;1.90;;;18.80;78.50;;;;;;4917485;29;20070;-83
2023/04/28 09:29:28;;;;;;;1.80;1.30;;;18.80;78.50;;;;;;4917232;29;20091;-83
2023/04/28 09:31:54;;;;;;;1.95;1.30;;;18.80;78.70;;;;;;4902509;29;20056;-83
2023/04/28 09:34:21;;;;;;;1.80;1.23;;;18.80;78.80;;;;;;4919650;29;20042;-82
2023/04/28 09:36:46;;;;;;;2.28;1.02;;;18.80;78.00;;;;;;4921978;29;20479;-83
2023/04/28 09:39:12;;;;;;;3.22;1.30;;;18.80;78.80;;;;;;4921506;29;20024;-83
2023/04/28 09:41:42;;;;;;;3.33;1.58;;;18.80;78.60;;;;;;4921929;29;20520;-83
2023/04/28 09:44:17;;;;;;;1.75;1.10;;;18.90;78.50;;;;;;4899312;29;20039;-83
2023/04/28 09:46:44;;;;;;;1.77;1.10;;;19.00;78.00;;;;;;4920273;29;20028;-83
2023/04/28 09:49:10;;;;;;;1.65;1.20;;;19.10;77.80;;;;;;4920956;29;20056;-83
2023/04/28 09:51:36;;;;;;;1.73;1.10;;;19.20;77.60;;;;;;4920212;29;20111;-83
2023/04/28 09:54:02;;;;;;;1.67;1.20;;;19.30;77.70;;;;;;4919699;29;20503;-83
2023/04/28 09:56:29;;;;;;;1.40;0.90;;;19.30;77.00;;;;;;4904991;29;20035;-82
2023/04/28 09:58:58;;;;;;;1.48;1.10;;;19.30;76.60;;;;;;4920861;29;20063;-83
2023/04/28 10:01:31;;;;;;;3.38;1.27;;;19.30;77.00;;;;;;4922138;29;20032;-83
2023/04/28 10:03:59;;;;;;;1.77;1.10;;;19.40;76.30;;;;;;4921229;29;20024;-83
2023/04/28 10:06:27;;;;;;;2.55;0.90;;;19.50;76.40;;;;;;4921202;29;20028;-83
2023/04/28 10:08:55;;;;;;;1.70;1.02;;;19.50;74.60;;;;;;4903798;29;20036;-83
2023/04/28 10:11:21;;;;;;;4.22;1.10;;;19.60;75.80;;;;;;4914808;29;20032;-83
2023/04/28 10:13:47;;;;;;;2.13;1.17;;;19.70;75.00;;;;;;4921211;29;20112;-83
2023/04/28 10:16:14;;;;;;;1.60;1.10;;;19.80;75.00;;;;;;4920516;29;20215;-85
2023/04/28 10:18:41;;;;;;;1.08;0.77;;;19.90;74.70;;;;;;4921653;29;20036;-85
2023/04/28 10:21:08;;;;;;;2.17;0.90;;;20.00;74.80;;;;;;4919639;29;20036;-87
2023/04/28 10:23:52;;;;;;;1.38;0.85;;;20.20;74.70;;;;;;4905003;29;20024;-90
2023/04/28 10:26:23;;;;;;;1.60;0.90;;;20.40;73.60;;;;;;4922869;29;20037;-93
2023/04/28 10:28:51;;;;;;;1.40;0.90;;;20.50;73.00;;;;;;4920081;29;20056;-89
2023/04/28 10:31:22;;;;;;;4.05;0.82;;;20.60;72.70;;;;;;4920655;29;20055;-85
2023/04/28 10:34:10;;;;;;;2.70;1.15;;;20.70;72.50;;;;;;4904534;29;20024;-88
2023/04/28 10:36:58;;;;;;;3.50;1.38;;;20.80;72.20;;;;;;4920252;29;20042;-88
2023/04/28 10:39:24;;;;;;;1.80;0.73;;;20.90;72.30;;;;;;4904417;29;20024;-85
2023/04/28 10:41:49;;;;;;;1.42;1.00;;;21.00;72.20;;;;;;4929018;29;20467;-86
2023/04/28 10:44:45;;;;;;;1.67;0.65;;;21.30;71.50;;;;;;4920886;29;20028;-85
2023/04/28 10:47:11;;;;;;;1.70;0.85;;;21.40;70.60;;;;;;4906752;29;20076;-83
2023/04/28 10:49:56;;;;;;;1.67;0.70;;;21.30;70.80;;;;;;4903458;29;20036;-82
2023/04/28 10:52:48;;;;;;;1.67;0.80;;;21.20;70.60;;;;;;4904394;29;20024;-83
2023/04/28 10:55:25;;;;;;;1.48;0.93;;;20.90;70.40;;;;;;4915231;29;20123;-83
2023/04/28 10:58:19;;;;;;;2.28;1.30;;;20.90;71.40;;;;;;4903982;29;20032;-86
2023/04/28 11:00:47;;;;;;;1.67;1.00;;;20.90;72.10;;;;;;4900838;29;20587;-82
2023/04/28 11:04:03;;;;;;;3.20;1.20;;;20.90;72.40;;;;;;4921344;29;20726;-83
2023/04/28 11:06:34;;;;;;;1.90;1.10;;;21.00;71.70;;;;;;4830456;29;20038;-85
2023/04/28 11:09:14;;;;;;;1.42;0.90;;;21.20;71.90;;;;;;4851262;29;20090;-94
2023/04/28 11:12:00;;;;;;;;;;;21.20;71.10;;;;;;4875218;29;20032;-86
2023/04/28 11:14:31;;;;;;;2.05;1.25;;;21.10;69.80;;;;;;4904367;29;19938;-87
2023/04/28 11:17:02;;;;;;;1.73;0.90;;;21.00;70.50;;;;;;4900210;29;20028;-86
2023/04/28 11:19:30;;;;;;;2.65;1.08;;;20.90;70.80;;;;;;4897748;29;20036;-87
2023/04/28 11:22:01;;;;;;;2.38;1.30;;;20.80;71.90;;;;;;4899802;29;20024;-86
2023/04/28 11:24:28;;;;;;;3.35;1.10;;;20.80;70.30;;;;;;4919112;29;20032;-86
2023/04/28 11:26:54;;;;;;;2.53;0.90;;;20.80;71.70;;;;;;4919702;29;20399;-87
2023/04/28 11:29:40;;;;;;;1.85;1.20;;;20.80;71.20;;;;;;4902175;29;20032;-87
2023/04/28 11:32:07;;;;;;;2.15;1.02;;;20.70;72.40;;;;;;4917887;29;20059;-87
2023/04/28 11:34:34;;;;;;;2.45;1.38;;;20.60;72.40;;;;;;4897991;29;20040;-86
2023/04/28 11:37:00;;;;;;;2.05;1.15;;;20.70;72.50;;;;;;4902783;29;20407;-86
2023/04/28 11:39:31;;;;;;;1.40;1.10;;;20.80;73.00;;;;;;4918170;29;20040;-86
2023/04/28 11:41:58;;;;;;;3.28;1.27;;;20.80;72.50;;;;;;4914989;29;20084;-85
2023/04/28 11:44:26;;;;;;;2.03;1.30;;;20.80;72.20;;;;;;4914812;29;20119;-86
2023/04/28 11:46:56;;;;;;;2.83;1.50;;;20.90;71.00;;;;;;4913922;29;20028;-85
2023/04/28 11:49:56;;;;;;;1.98;1.40;;;21.10;71.40;;;;;;4899611;29;20125;-86
2023/04/28 11:52:22;;;;;;;3.05;1.42;;;21.20;71.20;;;;;;4888462;29;20039;-86
2023/04/28 11:54:55;;;;;;;2.50;1.75;;;21.20;71.00;;;;;;4917648;29;20396;-85
2023/04/28 11:57:22;;;;;;;2.55;1.70;;;21.20;70.00;;;;;;4913493;29;20444;-86
2023/04/28 11:59:48;;;;;;;3.03;1.80;;;21.30;69.50;;;;;;4900837;29;20032;-86
2023/04/28 12:02:15;;;;;;;2.33;1.75;;;21.60;69.60;;;;;;4915476;29;20028;-85
2023/04/28 12:04:49;;;;;;;3.30;2.17;;;21.70;69.00;;;;;;4918619;29;20056;-85
2023/04/28 12:07:17;;;;;;;3.30;1.80;;;21.80;68.50;;;;;;4918739;29;20024;-85
2023/04/28 12:09:51;;;;;;;2.03;1.33;;;21.90;67.60;;;;;;4919620;29;20060;-85
2023/04/28 12:12:32;;;;;;;4.78;1.73;;;21.80;67.70;;;;;;4919040;29;20036;-85
2023/04/28 12:15:00;;;;;;;2.83;1.60;;;21.70;67.80;;;;;;4912675;29;20032;-85
2023/04/28 12:17:37;;;;;;;3.20;1.83;;;21.70;68.10;;;;;;4901999;29;20032;-85
2023/04/28 12:20:37;;;;;;;3.05;1.10;;;21.80;68.80;;;;;;4897291;29;20563;-84
2023/04/28 12:23:07;;;;;;;2.85;1.65;;;22.00;68.60;;;;;;4911083;29;20040;-84
2023/04/28 12:25:34;;;;;;;3.57;1.30;;;22.20;67.60;;;;;;4921993;29;20028;-84
2023/04/28 12:28:03;;;;;;;5.07;1.50;;;22.40;67.00;;;;;;4901519;29;20518;-85
2023/04/28 12:30:32;;;;;;;2.13;1.65;;;22.50;67.20;;;;;;4918893;29;20180;-85
2023/04/28 12:32:57;;;;;;;2.22;1.17;;;22.60;66.00;;;;;;4901994;29;20032;-85
2023/04/28 12:35:25;;;;;;;3.17;1.42;;;22.70;66.10;;;;;;4917374;29;20024;-85
2023/04/28 12:37:52;;;;;;;1.85;1.30;;;22.90;65.30;;;;;;4900832;29;20036;-84
2023/04/28 12:40:18;;;;;;;1.60;1.20;;;23.00;64.90;;;;;;4917752;29;20119;-84
2023/04/28 12:42:43;;;;;;;3.78;1.42;;;23.00;62.30;;;;;;4901796;29;20452;-84
2023/04/28 12:45:09;;;;;;;2.90;1.25;;;23.00;63.50;;;;;;4918614;29;20063;-84
2023/04/28 12:47:38;;;;;;;2.63;1.20;;;23.10;62.70;;;;;;4918039;29;20036;-85
2023/04/28 12:50:05;;;;;;;2.08;1.10;;;23.10;63.10;;;;;;4917849;29;20083;-84
2023/04/28 12:52:34;;;;;;;2.65;1.50;;;23.10;63.60;;;;;;4901641;29;20025;-84
2023/04/28 12:55:01;;;;;;;1.77;1.10;;;23.20;63.50;;;;;;4918243;29;20032;-84
2023/04/28 12:57:27;;;;;;;2.25;1.13;;;23.20;63.40;;;;;;4918048;29;20104;-84
2023/04/28 12:59:54;;;;;;;3.20;1.10;;;23.20;62.20;;;;;;4917429;29;20020;-84
2023/04/28 13:02:20;;;;;;;2.53;1.48;;;23.30;63.40;;;;;;4918068;29;20028;-84
2023/04/28 13:04:46;;;;;;;2.33;1.10;;;23.50;63.10;;;;;;4917840;29;20032;-84
2023/04/28 13:07:13;;;;;;;1.70;0.90;;;23.40;62.90;;;;;;4896881;29;20036;-84
2023/04/28 13:09:39;;;;;;;2.97;1.00;;;23.40;63.10;;;;;;4913220;29;20035;-84
2023/04/28 13:12:04;;;;;;;1.58;0.88;;;23.40;63.00;;;;;;4918179;29;20047;-84
2023/04/28 13:14:31;;;;;;;2.10;1.10;;;23.30;61.30;;;;;;4916959;29;20459;-84
2023/04/28 13:16:56;;;;;;;2.13;1.17;;;23.20;62.10;;;;;;4905872;29;20036;-84
2023/04/28 13:19:22;;;;;;;1.77;1.20;;;23.20;63.00;;;;;;4917399;29;20048;-84
2023/04/28 13:21:48;;;;;;;2.45;0.93;;;23.20;63.20;;;;;;4911846;29;20500;-84
2023/04/28 13:24:14;;;;;;;1.67;1.10;;;23.20;63.10;;;;;;4916714;29;20032;-85
2023/04/28 13:26:40;;;;;;;3.78;1.15;;;23.20;63.00;;;;;;4914249;29;20040;-85
2023/04/28 13:29:09;;;;;;;3.13;1.40;;;23.30;63.70;;;;;;4915923;29;20101;-84
2023/04/28 13:31:35;;;;;;;1.90;1.08;;;23.40;63.30;;;;;;4909770;29;20075;-84
2023/04/28 13:34:01;;;;;;;3.90;1.38;;;23.50;63.00;;;;;;4895361;29;20518;-85
2023/04/28 13:36:31;;;;;;;2.92;1.52;;;23.50;62.30;;;;;;4910874;29;20032;-85
2023/04/28 13:38:59;;;;;;;4.82;1.73;;;23.60;62.80;;;;;;4901968;29;20032;-85
2023/04/28 13:41:27;;;;;;;3.25;1.73;;;23.70;62.10;;;;;;4920831;29;20066;-84
2023/04/28 13:43:53;;;;;;;2.67;1.60;;;23.80;61.30;;;;;;4917222;29;20181;-85
2023/04/28 13:46:19;;;;;;;3.38;1.80;;;23.90;60.90;;;;;;4919723;29;20032;-84
2023/04/28 13:48:49;;;;;;;5.32;1.55;;;24.00;60.90;;;;;;4917776;29;20020;-83
2023/04/28 13:51:14;;;;;;;1.95;1.23;;;24.10;61.40;;;;;;4900296;29;20092;-84
2023/04/28 13:53:40;;;;;;;6.00;1.67;;;24.00;60.60;;;;;;4914062;29;20044;-85
2023/04/28 13:56:09;;;;;;;2.72;1.35;;;23.90;61.40;;;;;;4918543;29;20036;-85
2023/04/28 13:58:36;;;;;;;2.05;0.93;;;23.80;61.40;;;;;;4917808;29;20040;-85
2023/04/28 14:01:05;;;;;;;1.50;0.90;;;23.70;61.40;;;;;;4913820;29;20031;-85
2023/04/28 14:03:31;;;;;;;3.25;1.10;;;23.60;62.50;;;;;;4910652;29;20039;-85
2023/04/28 14:05:57;;;;;;;1.60;1.02;;;23.50;61.90;;;;;;4918464;29;20032;-85
2023/04/28 14:08:26;;;;;;;1.67;1.17;;;23.40;62.10;;;;;;4901932;29;20482;-85
2023/04/28 14:10:52;;;;;;;2.83;1.13;;;23.30;62.40;;;;;;4903166;29;20042;-85
2023/04/28 14:13:20;;;;;;;2.05;0.85;;;23.30;62.20;;;;;;4937800;29;20024;-84
2023/04/28 14:15:46;;;;;;;5.28;1.23;;;23.30;61.40;;;;;;4923907;29;20032;-85
2023/04/28 14:18:13;;;;;;;2.55;1.30;;;23.40;62.00;;;;;;4901410;29;20423;-85
2023/04/28 14:20:38;;;;;;;3.30;1.88;;;23.30;62.30;;;;;;4903840;29;20115;-85
2023/04/28 14:23:06;;;;;;;1.95;1.33;;;23.30;62.50;;;;;;4919619;29;20051;-85
2023/04/28 14:25:32;;;;;;;2.95;1.75;;;23.30;63.00;;;;;;4920874;29;20111;-85
2023/04/28 14:28:00;;;;;;;2.53;1.60;;;23.30;62.30;;;;;;4920438;29;20052;-85
2023/04/28 14:30:26;;;;;;;1.88;1.38;;;23.30;61.50;;;;;;4902711;29;20052;-85
2023/04/28 14:32:51;;;;;;;2.25;1.52;;;23.30;62.20;;;;;;4918605;29;20087;-84
2023/04/28 14:35:19;;;;;;;1.75;1.30;;;23.30;62.30;;;;;;4915240;29;20031;-84
2023/04/28 14:37:47;;;;;;;5.57;2.35;;;23.20;61.90;;;;;;4902377;29;20683;-84
2023/04/28 14:40:14;;;;;;;2.08;1.63;;;23.20;61.30;;;;;;4919931;29;20570;-85
2023/04/28 14:42:42;;;;;;;2.78;1.67;;;23.20;61.20;;;;;;4934043;29;20039;-84
2023/04/28 14:45:09;;;;;;;2.50;1.60;;;23.30;62.00;;;;;;4906232;29;20487;-85
2023/04/28 14:47:37;;;;;;;3.13;2.17;;;23.40;61.50;;;;;;4926939;29;20035;-84
2023/04/28 14:50:04;;;;;;;5.32;2.13;;;23.60;61.20;;;;;;4915422;29;20036;-84
2023/04/28 14:52:31;;;;;;;4.15;2.28;;;23.60;61.10;;;;;;4915959;29;20025;-83
2023/04/28 14:55:02;;;;;;;5.07;2.35;;;23.70;60.80;;;;;;4918464;29;20036;-83
2023/04/28 14:57:27;;;;;;;7.25;4.78;;;23.80;60.70;;;;;;4903236;29;20036;-83
2023/04/28 14:59:56;;;;;;;5.80;4.72;;;23.80;61.50;;;;;;4919711;29;20098;-83
2023/04/28 15:02:27;;;;;;;7.15;4.75;;;23.60;61.80;;;;;;4916362;29;20123;-82
2023/04/28 15:04:55;;;;;;;7.53;4.35;;;23.40;62.50;;;;;;4920750;29;20051;-84
2023/04/28 15:07:23;;;;;;;4.45;3.40;;;23.30;62.70;;;;;;4910981;29;20038;-84
2023/04/28 15:09:50;;;;;;;5.88;3.35;;;23.20;63.00;;;;;;4919250;29;20885;-84
2023/04/28 15:12:16;;;;;;;6.10;3.25;;;23.10;63.80;;;;;;4919189;29;20454;-84
2023/04/28 15:14:44;;;;;;;4.35;3.30;;;23.00;63.40;;;;;;4920667;29;20510;-84
2023/04/28 15:17:10;;;;;;;4.60;3.22;;;23.00;63.50;;;;;;4913697;29;20040;-84
2023/04/28 15:19:35;;;;;;;5.40;3.53;;;22.90;63.50;;;;;;4925466;29;20490;-84
2023/04/28 15:22:06;;;;;;;6.50;3.67;;;22.80;63.70;;;;;;4920547;29;20079;-84
2023/04/28 15:24:31;;;;;;;4.55;3.60;;;22.80;63.80;;;;;;4911769;29;20043;-85
2023/04/28 15:26:57;;;;;;;6.50;3.65;;;22.80;63.30;;;;;;4912814;29;20062;-84
2023/04/28 15:29:23;;;;;;;5.93;3.95;;;22.80;64.00;;;;;;4923816;29;20032;-83
2023/04/28 15:31:49;;;;;;;8.63;4.43;;;22.80;64.80;;;;;;4930632;29;20099;-84
2023/04/28 15:34:14;;;;;;;7.50;4.95;;;22.80;64.60;;;;;;4901611;29;20040;-85
2023/04/28 15:36:42;;;;;;;5.88;4.13;;;22.80;64.50;;;;;;4898630;29;20504;-84
2023/04/28 15:39:07;;;;;;;10.30;6.68;;;22.80;64.70;;;;;;4910516;29;20039;-84
2023/04/28 15:41:34;;;;;;;8.52;5.30;;;22.80;64.30;;;;;;4920705;29;20036;-84
2023/04/28 15:44:00;;;;;;;5.85;4.65;;;22.80;64.00;;;;;;4920188;29;21140;-84
2023/04/28 15:46:27;;;;;;;6.50;4.43;;;22.70;63.90;;;;;;4917623;29;20047;-85
2023/04/28 15:48:53;;;;;;;7.43;5.00;;;22.70;63.90;;;;;;4918825;29;20532;-84
2023/04/28 15:51:19;;;;;;;6.40;4.50;;;22.70;64.10;;;;;;4918610;29;20043;-84
2023/04/28 15:53:45;;;;;;;5.30;3.83;;;22.70;64.20;;;;;;4920861;29;20110;-84
2023/04/28 15:56:11;;;;;;;4.85;3.75;;;22.60;64.30;;;;;;4922317;29;20066;-85
2023/04/28 15:58:36;;;;;;;4.43;3.28;;;22.60;64.80;;;;;;4933514;29;20028;-85
2023/04/28 16:01:02;;;;;;;3.92;3.30;;;22.60;64.80;;;;;;4918939;29;20024;-84
2023/04/28 16:03:28;;;;;;;5.82;3.63;;;22.60;65.20;;;;;;4903623;29;20807;-80
2023/04/28 16:05:54;;;;;;;4.35;3.60;;;22.50;65.10;;;;;;4919754;29;20038;-86
2023/04/28 16:08:23;;;;;;;6.57;4.07;;;22.50;65.00;;;;;;4920303;29;20032;-86
2023/04/28 16:10:50;;;;;;;7.43;3.75;;;22.40;65.10;;;;;;4901432;29;20519;-86
2023/04/28 16:13:16;;;;;;;5.93;3.30;;;22.40;65.30;;;;;;4922601;29;20064;-86
2023/04/28 16:15:41;;;;;;;5.93;2.78;;;22.30;65.10;;;;;;4902007;29;20039;-86
2023/04/28 16:18:08;;;;;;;4.88;3.28;;;22.30;65.80;;;;;;4903310;29;20052;-86
2023/04/28 16:20:34;;;;;;;4.65;3.20;;;22.30;65.60;;;;;;4919552;29;20036;-85
2023/04/28 16:23:00;;;;;;;4.78;3.03;;;22.30;65.90;;;;;;4898331;29;20818;-86
2023/04/28 16:25:26;;;;;;;3.92;3.17;;;22.20;65.70;;;;;;4917591;29;20380;-85
2023/04/28 16:27:52;;;;;;;4.13;2.70;;;22.10;65.40;;;;;;4904861;29;20027;-86
2023/04/28 16:30:17;;;;;;;5.32;3.10;;;22.10;65.50;;;;;;4919067;29;20087;-86
2023/04/28 16:32:43;;;;;;;5.20;3.15;;;22.00;66.10;;;;;;4918681;29;20499;-86
2023/04/28 16:35:12;;;;;;;4.57;3.20;;;22.00;66.20;;;;;;4903322;29;20538;-85
2023/04/28 16:37:38;;;;;;;4.60;3.15;;;21.90;65.80;;;;;;4919582;29;20072;-85
2023/04/28 16:40:04;;;;;;;4.93;3.70;;;21.90;66.20;;;;;;4920130;29;20039;-86
2023/04/28 16:42:30;;;;;;;4.95;3.60;;;21.80;66.20;;;;;;4919333;29;20412;-86
2023/04/28 16:44:58;;;;;;;5.05;3.67;;;21.70;66.10;;;;;;4902840;29;20087;-84
2023/04/28 16:47:24;;;;;;;4.97;3.72;;;21.60;66.40;;;;;;4901811;29;20042;-79
2023/04/28 16:49:50;;;;;;;5.38;3.53;;;21.60;66.40;;;;;;4920023;29;20059;-83
2023/04/28 16:52:15;;;;;;;8.10;4.28;;;21.50;66.80;;;;;;4919780;29;20028;-81
2023/04/28 16:54:41;;;;;;;6.45;3.80;;;21.50;66.60;;;;;;4919112;29;20080;-77
2023/04/28 16:57:07;;;;;;;5.60;3.70;;;21.30;66.70;;;;;;4919774;29;20127;-84
2023/04/28 16:59:32;;;;;;;4.63;4.07;;;21.20;66.60;;;;;;4921511;29;20052;-78
2023/04/28 17:02:00;;;;;;;5.55;3.78;;;21.20;67.00;;;;;;4919316;29;20044;-78
2023/04/28 17:04:32;;;;;;;5.88;3.90;;;21.10;67.10;;;;;;4902757;29;20028;-88
2023/04/28 17:06:58;;;;;;;7.15;4.93;;;21.10;67.10;;;;;;4902925;29;20638;-87
2023/04/28 17:09:25;;;;;;;5.70;4.10;;;21.00;67.10;;;;;;4919428;29;20028;-78
2023/04/28 17:11:51;;;;;;;6.35;4.78;;;21.00;66.60;;;;;;4902712;29;20043;-80
2023/04/28 17:14:17;;;;;;;5.13;3.53;;;20.80;66.50;;;;;;4919527;29;20492;-80
2023/04/28 17:16:43;;;;;;;4.07;3.53;;;20.80;66.70;;;;;;4907815;29;20040;-81
2023/04/28 17:19:10;;;;;;;5.75;3.63;;;20.80;66.70;;;;;;4919622;29;20039;-81
2023/04/28 17:21:36;;;;;;;7.13;4.15;;;20.70;67.30;;;;;;4902411;29;20035;-84